Enochsburg, Indiana
Current Conditions -  °F | °C
As of 2:45 PM on Thursday 18 Dec 2014 (Local Time) from KBAK Reporting Station
Overcast Overcast  
Wind Chill: 28°   Ceiling: 8000
Heat Index: 28°   Visibility: 10mi
Dew Point: 23°   Wind: 0mph
Humidity: 80%   Direction: NA
Pressure: 30.23"   Gusts: NA
Location:  39.3206°N, 85.4768°W
Report Text: KBAK 181945Z 00000KT 10SM SCT017 BKN080 OVC110 M02/M05 A3023
Loading
Personal Weather Stations






























Interactive Weather Map New forecast layout! Learn more

10-Day Weather Forecast

Advertisements
Track Severe Weather on mobile